createdAt,value
2018-01-14T02:40:54.529Z,0
2018-01-14T02:41:43.469Z,0
2018-01-14T02:42:28.884Z,0
2018-01-14T02:44:50.596Z,0
2018-01-14T02:45:39.421Z,0
2018-01-14T02:46:27.939Z,0
2018-01-14T02:47:16.939Z,0
2018-01-14T02:48:05.207Z,0
2018-01-14T02:48:55.564Z,0
2018-01-14T02:49:44.203Z,0
2018-01-14T02:50:27.725Z,0
2018-01-14T02:51:09.668Z,0
2018-01-14T02:51:50.229Z,0
2018-01-14T02:52:30.804Z,0
2018-01-14T02:53:11.297Z,0
2018-01-14T02:53:51.886Z,0
2018-01-14T02:54:32.460Z,0
2018-01-14T02:55:13.047Z,0
2018-01-14T02:55:53.524Z,0
2018-01-14T02:56:34.045Z,0
2018-01-14T02:57:14.532Z,0
2018-01-14T02:57:55.090Z,0
2018-01-14T02:58:35.649Z,0
2018-01-14T02:59:16.160Z,0
2018-01-14T02:59:56.835Z,0
2018-01-14T03:00:37.400Z,0
2018-01-14T03:01:17.920Z,0
2018-01-14T03:01:58.462Z,0
2018-01-14T03:02:38.994Z,0
2018-01-14T03:03:19.530Z,0
2018-01-14T03:04:00.112Z,0
2018-01-14T03:04:40.581Z,0
2018-01-14T03:05:21.135Z,0
2018-01-14T03:06:01.666Z,0
2018-01-14T03:06:42.145Z,0
2018-01-14T03:07:22.767Z,0
2018-01-14T03:08:03.313Z,0
2018-01-14T03:08:43.986Z,0
2018-01-14T03:09:24.534Z,0
2018-01-14T03:10:05.014Z,0
2018-01-14T03:10:45.633Z,0
2018-01-14T03:11:26.234Z,0
2018-01-14T03:12:06.752Z,0
2018-01-14T03:12:47.394Z,0
2018-01-14T03:13:27.934Z,0
2018-01-14T03:14:08.477Z,0
2018-01-14T03:14:49.025Z,0
2018-01-14T03:15:29.529Z,0
2018-01-14T03:16:10.048Z,0
2018-01-14T03:16:50.581Z,0
2018-01-14T03:17:31.185Z,0
2018-01-14T03:18:11.717Z,0
2018-01-14T03:18:52.235Z,0
2018-01-14T03:19:32.865Z,0
2018-01-14T03:20:13.416Z,0
2018-01-14T03:20:53.916Z,0
2018-01-14T03:21:34.528Z,0
2018-01-14T03:22:15.065Z,0
2018-01-14T03:22:55.610Z,0
2018-01-14T03:23:36.110Z,0
2018-01-14T03:24:16.592Z,0
2018-01-14T03:24:57.127Z,0
2018-01-14T03:25:37.663Z,0
2018-01-14T03:26:18.183Z,0
2018-01-14T03:26:58.741Z,0
2018-01-14T03:27:39.268Z,0
2018-01-14T03:28:19.784Z,0
2018-01-14T03:29:00.320Z,0
2018-01-14T03:29:40.923Z,0
2018-01-14T03:30:21.395Z,0
2018-01-14T03:31:01.953Z,0
2018-01-14T03:31:42.492Z,0
2018-01-14T03:32:23.047Z,0
2018-01-14T03:33:03.546Z,0
2018-01-14T03:33:44.161Z,0
2018-01-14T03:34:24.610Z,0
2018-01-14T03:35:05.073Z,0
2018-01-14T03:35:45.690Z,0
2018-01-14T03:36:26.238Z,0
2018-01-14T03:37:06.745Z,0
2018-01-14T03:37:47.287Z,0
2018-01-14T03:38:27.855Z,0
2018-01-14T03:39:08.353Z,0
2018-01-14T03:39:48.897Z,0
2018-01-14T03:40:29.406Z,0
2018-01-14T03:41:10.004Z,0
2018-01-14T03:41:50.601Z,0
2018-01-14T03:42:31.044Z,0
2018-01-14T03:43:11.633Z,0
2018-01-14T03:43:52.175Z,0
2018-01-14T03:44:32.662Z,0
2018-01-14T03:45:13.294Z,0
2018-01-14T03:45:53.828Z,0
2018-01-14T03:46:34.389Z,0
2018-01-14T03:47:14.887Z,0
2018-01-14T03:47:55.511Z,0
2018-01-14T03:48:36.121Z,0
2018-01-14T03:49:16.611Z,0
2018-01-14T03:49:57.153Z,0
2018-01-14T03:50:37.728Z,0
2018-01-14T03:51:18.274Z,0
2018-01-14T03:51:58.819Z,0
2018-01-14T03:52:39.390Z,0
2018-01-14T03:53:20.033Z,0
2018-01-14T03:54:00.530Z,0
2018-01-14T03:54:41.043Z,0
2018-01-14T03:55:21.587Z,0
2018-01-14T03:56:02.180Z,0
2018-01-14T03:56:42.658Z,0
2018-01-14T03:57:23.214Z,0
2018-01-14T03:58:03.721Z,0
2018-01-14T03:58:44.430Z,0
2018-01-14T03:59:24.964Z,0
2018-01-14T04:00:05.468Z,0
2018-01-14T04:00:46.052Z,0
2018-01-14T04:01:26.585Z,0
2018-01-14T04:02:07.172Z,0
2018-01-14T04:02:47.773Z,0
2018-01-14T04:03:28.289Z,0
2018-01-14T04:04:08.805Z,0
2018-01-14T04:04:49.386Z,0
2018-01-14T04:05:29.883Z,0
2018-01-14T04:06:10.428Z,0
2018-01-14T04:06:50.970Z,0
2018-01-14T04:07:31.511Z,0
2018-01-14T04:08:12.056Z,0
2018-01-14T04:08:52.679Z,0
2018-01-14T04:09:33.257Z,0
2018-01-14T04:10:13.809Z,0
2018-01-14T04:10:54.333Z,0
2018-01-14T04:11:34.831Z,0
2018-01-14T04:12:15.409Z,0
2018-01-14T04:12:56.003Z,0
2018-01-14T04:13:36.519Z,0
2018-01-14T04:14:17.011Z,0
2018-01-14T04:14:57.594Z,0
2018-01-14T04:15:38.120Z,0
2018-01-14T04:16:18.711Z,0
2018-01-14T04:16:59.199Z,0
2018-01-14T04:17:39.806Z,0
2018-01-14T04:18:20.334Z,0
2018-01-14T04:19:00.927Z,0
2018-01-14T04:19:41.404Z,0
2018-01-14T04:20:21.915Z,0
2018-01-14T04:21:02.537Z,0
2018-01-14T04:21:43.051Z,0
2018-01-14T04:22:23.673Z,0
2018-01-14T04:23:04.206Z,0
2018-01-14T04:23:44.771Z,0
2018-01-14T04:24:25.308Z,0
2018-01-14T04:25:05.897Z,0
2018-01-14T04:25:46.396Z,0
2018-01-14T04:26:26.926Z,0
2018-01-14T04:27:07.461Z,0
2018-01-14T04:27:48.014Z,0
2018-01-14T04:28:28.565Z,0
2018-01-14T04:29:09.080Z,0
2018-01-14T04:29:49.631Z,0
2018-01-14T04:30:30.195Z,0
2018-01-14T04:31:10.745Z,0
2018-01-14T04:31:51.262Z,0
2018-01-14T04:32:31.756Z,0
2018-01-14T04:33:12.309Z,0
2018-01-14T04:33:52.913Z,0
2018-01-14T04:34:33.416Z,0
2018-01-14T04:35:14.057Z,0
2018-01-14T04:35:54.593Z,0
2018-01-14T04:36:35.139Z,0
2018-01-14T04:37:15.630Z,0
2018-01-14T04:37:56.178Z,0
2018-01-14T04:38:36.704Z,0
2018-01-14T04:39:17.325Z,0
2018-01-14T04:39:57.819Z,0
2018-01-14T04:40:38.374Z,0
2018-01-14T04:41:18.908Z,0
2018-01-14T04:41:59.451Z,0
2018-01-14T04:42:40.010Z,0
2018-01-14T04:43:20.474Z,0
2018-01-14T04:44:01.030Z,0
2018-01-14T04:44:41.579Z,0
2018-01-14T04:45:22.163Z,0
2018-01-14T04:46:02.715Z,0
2018-01-14T04:46:43.321Z,0
2018-01-14T04:47:23.876Z,0
2018-01-14T04:48:04.426Z,0
2018-01-14T04:48:44.945Z,0
2018-01-14T04:49:25.522Z,0
2018-01-14T04:50:06.017Z,0
2018-01-14T04:50:46.634Z,0
2018-01-14T04:51:27.098Z,0
2018-01-14T04:52:07.633Z,0
2018-01-14T04:52:48.171Z,0
2018-01-14T04:53:28.725Z,0
2018-01-14T04:54:09.308Z,0
2018-01-14T04:54:49.860Z,0
2018-01-14T04:55:30.487Z,0
2018-01-14T04:56:10.925Z,0
2018-01-14T04:56:51.527Z,0
2018-01-14T04:57:32.136Z,0
2018-01-14T04:58:12.622Z,0
2018-01-14T04:58:53.178Z,0
2018-01-14T04:59:33.730Z,0
2018-01-14T05:00:14.188Z,0
2018-01-14T05:00:54.715Z,0
2018-01-14T05:01:35.257Z,0
2018-01-14T05:02:15.759Z,0
2018-01-14T05:02:56.390Z,0
2018-01-14T05:03:36.930Z,0
2018-01-14T05:04:17.437Z,0
2018-01-14T05:04:57.989Z,0
2018-01-14T05:05:38.562Z,0
2018-01-14T05:06:19.152Z,0
2018-01-14T05:06:59.666Z,0
2018-01-14T05:07:40.167Z,0
2018-01-14T05:08:20.727Z,0
2018-01-14T05:09:01.232Z,0
2018-01-14T05:09:41.782Z,0
2018-01-14T05:10:22.334Z,0
2018-01-14T05:11:02.946Z,0
2018-01-14T05:11:43.429Z,0
2018-01-14T05:12:23.909Z,0
2018-01-14T05:13:04.479Z,0
2018-01-14T05:13:44.999Z,0
2018-01-14T05:14:25.565Z,0
2018-01-14T05:15:06.050Z,0
2018-01-14T05:15:46.580Z,0
2018-01-14T05:16:27.110Z,0
2018-01-14T05:17:07.756Z,0
2018-01-14T05:17:48.315Z,0
2018-01-14T05:18:28.840Z,0
2018-01-14T05:19:09.388Z,0
2018-01-14T05:19:49.879Z,0
2018-01-14T05:20:30.412Z,0
2018-01-14T05:21:10.935Z,0
2018-01-14T05:21:51.520Z,0
2018-01-14T05:22:32.056Z,0
2018-01-14T05:23:12.596Z,0
2018-01-14T05:23:53.132Z,0
2018-01-14T05:24:33.672Z,0
2018-01-14T05:25:14.270Z,0
2018-01-14T05:25:54.861Z,0
2018-01-14T05:26:35.443Z,0
2018-01-14T05:27:15.967Z,0
2018-01-14T05:27:56.541Z,0
2018-01-14T05:28:37.088Z,0
2018-01-14T05:29:17.590Z,0
2018-01-14T05:29:58.095Z,0
2018-01-14T05:30:38.635Z,0
2018-01-14T05:31:19.157Z,0
2018-01-14T05:31:59.693Z,0
2018-01-14T05:32:40.218Z,0
2018-01-14T05:33:20.791Z,0
2018-01-14T05:34:01.336Z,0
2018-01-14T05:34:41.919Z,0
2018-01-14T05:35:22.474Z,0
2018-01-14T05:36:02.983Z,0
2018-01-14T05:36:43.504Z,0
2018-01-14T05:37:24.122Z,0
2018-01-14T05:38:04.610Z,0
2018-01-14T05:38:45.222Z,0
2018-01-14T05:39:25.784Z,0
2018-01-14T05:40:06.357Z,0
2018-01-14T05:40:46.863Z,0
2018-01-14T05:41:27.435Z,0
2018-01-14T05:42:08.013Z,0
2018-01-14T05:42:48.535Z,0
2018-01-14T05:43:29.134Z,0
2018-01-14T05:44:09.656Z,0
2018-01-14T05:44:50.172Z,0
2018-01-14T05:45:30.757Z,0
2018-01-14T05:46:11.319Z,0
2018-01-14T05:46:51.830Z,0
2018-01-14T05:47:32.322Z,0
2018-01-14T05:48:12.903Z,0
2018-01-14T05:48:53.474Z,0
2018-01-14T05:49:33.947Z,0
2018-01-14T05:50:14.505Z,0
2018-01-14T05:50:55.013Z,0
2018-01-14T05:51:35.542Z,0
2018-01-14T05:52:16.098Z,0
2018-01-14T05:52:56.608Z,0
2018-01-14T05:53:37.197Z,0
2018-01-14T05:54:17.737Z,0
2018-01-14T05:54:58.291Z,0
2018-01-14T05:55:38.857Z,0
2018-01-14T05:56:19.387Z,0
2018-01-14T05:56:59.937Z,0
2018-01-14T05:57:40.471Z,0
2018-01-14T05:58:20.970Z,0
2018-01-14T05:59:01.516Z,0
2018-01-14T05:59:42.064Z,0
2018-01-14T06:00:22.650Z,0
2018-01-14T06:01:03.184Z,0
2018-01-14T06:01:43.719Z,0
2018-01-14T06:02:24.272Z,0
2018-01-14T06:03:04.785Z,0
2018-01-14T06:03:45.347Z,0
2018-01-14T06:04:25.902Z,0
2018-01-14T06:05:06.440Z,0
2018-01-14T06:05:46.966Z,0
2018-01-14T06:06:27.466Z,0
2018-01-14T06:07:08.026Z,0
2018-01-14T06:07:48.546Z,0
2018-01-14T06:08:29.091Z,0
2018-01-14T06:09:09.643Z,0
2018-01-14T06:09:50.324Z,0
2018-01-14T06:10:30.923Z,0
2018-01-14T06:11:11.430Z,0
2018-01-14T06:11:51.950Z,0
2018-01-14T06:12:32.471Z,0
2018-01-14T06:13:12.991Z,0
2018-01-14T06:13:53.555Z,0
2018-01-14T06:14:34.016Z,0
2018-01-14T06:15:14.597Z,0
2018-01-14T06:15:55.135Z,0
2018-01-14T06:16:35.791Z,0
2018-01-14T06:17:16.291Z,0
2018-01-14T06:17:56.888Z,0
2018-01-14T06:18:37.439Z,0
2018-01-14T06:19:17.942Z,0
2018-01-14T06:19:58.476Z,0
2018-01-14T06:20:38.992Z,0
2018-01-14T06:21:19.580Z,0
2018-01-14T06:22:00.122Z,0
2018-01-14T06:22:40.630Z,0
2018-01-14T06:23:21.213Z,0
2018-01-14T06:24:01.711Z,0
2018-01-14T06:24:42.320Z,0
2018-01-14T06:25:22.773Z,0
2018-01-14T06:26:03.340Z,0
2018-01-14T06:26:43.921Z,0
2018-01-14T06:27:24.411Z,0
2018-01-14T06:28:04.958Z,0
2018-01-14T06:28:45.475Z,0
2018-01-14T06:29:26.002Z,0
2018-01-14T06:30:06.504Z,0
2018-01-14T06:30:47.110Z,0
2018-01-14T06:31:27.681Z,0
2018-01-14T06:32:08.192Z,0
2018-01-14T06:32:48.648Z,0
2018-01-14T06:33:29.123Z,0
2018-01-14T06:34:09.728Z,0
2018-01-14T06:34:50.260Z,0
2018-01-14T06:35:30.827Z,0
2018-01-14T06:36:11.347Z,0
2018-01-14T06:36:51.902Z,0
2018-01-14T06:37:32.486Z,0
2018-01-14T06:38:13.043Z,0
2018-01-14T06:38:53.548Z,0
2018-01-14T06:39:34.064Z,0
2018-01-14T06:40:14.620Z,0
2018-01-14T06:40:55.167Z,0
2018-01-14T06:41:35.705Z,0
2018-01-14T06:42:16.240Z,0
2018-01-14T06:42:56.862Z,0
2018-01-14T06:43:37.418Z,0
2018-01-14T06:44:17.912Z,0
2018-01-14T06:44:58.529Z,0
2018-01-14T06:45:38.987Z,0
2018-01-14T06:46:19.570Z,0
2018-01-14T06:47:00.106Z,0
2018-01-14T06:47:40.645Z,0
2018-01-14T06:48:21.164Z,4
2018-01-14T06:49:01.696Z,4
2018-01-14T06:49:42.311Z,0
2018-01-14T06:50:22.883Z,0
2018-01-14T06:51:03.507Z,0
2018-01-14T06:51:44.033Z,4
2018-01-14T06:52:24.498Z,4
2018-01-14T06:53:05.040Z,0
2018-01-14T06:53:45.532Z,4
2018-01-14T06:54:26.112Z,4
2018-01-14T06:55:06.679Z,4
2018-01-14T06:55:47.223Z,4
2018-01-14T06:56:27.731Z,4
2018-01-14T06:57:08.291Z,8
2018-01-14T06:57:48.791Z,4
2018-01-14T06:58:29.357Z,8
2018-01-14T06:59:09.836Z,8
2018-01-14T06:59:50.428Z,8
2018-01-14T07:00:30.996Z,8
2018-01-14T07:01:11.555Z,8
2018-01-14T07:01:52.075Z,8
2018-01-14T07:02:32.609Z,12
2018-01-14T07:03:13.168Z,12
2018-01-14T07:03:53.714Z,12
2018-01-14T07:04:34.332Z,16
2018-01-14T07:05:14.834Z,16
2018-01-14T07:05:55.358Z,20
2018-01-14T07:06:35.932Z,20
2018-01-14T07:07:16.465Z,24
2018-01-14T07:07:57.019Z,24
2018-01-14T07:08:37.523Z,24
2018-01-14T07:09:18.043Z,28
2018-01-14T07:09:58.592Z,28
2018-01-14T07:10:39.171Z,32
2018-01-14T07:11:19.694Z,36
2018-01-14T07:12:00.221Z,36
2018-01-14T07:12:40.842Z,40
2018-01-14T07:13:21.424Z,48
2018-01-14T07:14:01.986Z,48
2018-01-14T07:14:42.567Z,48
2018-01-14T07:15:23.111Z,52
2018-01-14T07:16:03.661Z,60
2018-01-14T07:16:44.337Z,60
2018-01-14T07:17:24.970Z,64
2018-01-14T07:20:15.180Z,76
2018-01-14T07:21:00.981Z,76
2018-01-14T07:21:48.515Z,80
2018-01-14T07:22:37.425Z,88
2018-01-14T07:23:25.040Z,92
2018-01-14T07:24:09.549Z,96
2018-01-14T07:24:50.095Z,100
2018-01-14T07:25:30.611Z,104
2018-01-14T07:26:11.145Z,108
2018-01-14T07:26:51.744Z,112
2018-01-14T07:27:32.252Z,120
2018-01-14T07:28:12.866Z,124
2018-01-14T07:28:53.356Z,128
2018-01-14T07:29:33.880Z,132
2018-01-14T07:30:14.458Z,140
2018-01-14T07:30:54.976Z,148
2018-01-14T07:31:36.456Z,152
2018-01-14T07:32:16.961Z,160
2018-01-14T07:32:57.865Z,164
2018-01-14T07:33:38.422Z,172
2018-01-14T07:34:18.970Z,176
2018-01-14T07:34:59.439Z,184
2018-01-14T07:35:40.070Z,188
2018-01-14T07:36:20.744Z,188
2018-01-14T07:37:07.064Z,196
2018-01-14T07:37:49.702Z,204
2018-01-14T07:38:31.349Z,212
2018-01-14T07:39:13.191Z,220
2018-01-14T07:39:53.767Z,228
2018-01-14T07:40:34.237Z,240
2018-01-14T07:41:14.896Z,248
2018-01-14T07:58:33.519Z,488
2018-01-14T07:59:24.399Z,496
2018-01-14T08:00:13.755Z,512
2018-01-14T08:01:18.730Z,532
2018-01-14T08:02:07.396Z,540
2018-01-14T08:02:58.176Z,552
2018-01-14T08:03:51.709Z,568
2018-01-14T08:04:41.457Z,584
2018-01-14T08:07:25.226Z,620
2018-01-14T08:08:23.734Z,628
2018-01-14T08:09:13.436Z,632
2018-01-14T08:10:02.186Z,640
2018-01-14T08:16:00.202Z,732
2018-01-14T08:16:53.301Z,756
2018-01-14T08:17:47.651Z,776
2018-01-14T08:19:47.276Z,808
2018-01-14T08:20:36.179Z,820
2018-01-14T08:21:26.479Z,828
2018-01-14T08:22:18.797Z,852
2018-01-14T08:23:09.600Z,884
2018-01-14T08:23:57.622Z,892
2018-01-14T08:24:38.471Z,900
2018-01-14T08:25:19.053Z,900
2018-01-14T08:26:00.735Z,900
2018-01-14T08:26:41.112Z,904
2018-01-14T08:42:07.166Z,1124
2018-01-14T08:42:56.121Z,1112
2018-01-14T08:43:45.782Z,1096
2018-01-14T08:46:03.627Z,1124
2018-01-14T08:46:53.057Z,1160
2018-01-14T08:47:40.647Z,1188
2018-01-14T08:48:21.259Z,1216
2018-01-14T08:49:01.941Z,1224
2018-01-14T08:49:44.440Z,1232
2018-01-14T08:50:25.039Z,1228
2018-01-14T08:51:05.813Z,1232
2018-01-14T08:51:46.508Z,1224
2018-01-14T08:52:27.158Z,1224
2018-01-14T08:53:07.812Z,1232
2018-01-14T08:53:48.518Z,1236
2018-01-14T08:54:38.254Z,1248
2018-01-14T09:04:19.104Z,2092
2018-01-14T09:05:10.427Z,2112
2018-01-14T09:05:54.030Z,2148
2018-01-14T09:06:37.386Z,2196
2018-01-14T09:07:19.452Z,2232
2018-01-14T09:08:03.959Z,2252
2018-01-14T09:08:46.655Z,2260
2018-01-14T09:09:27.341Z,2244
2018-01-14T09:10:08.280Z,2212
2018-01-14T09:10:50.319Z,2176
2018-01-14T09:11:33.181Z,2152
2018-01-14T09:12:14.128Z,2136
2018-01-14T09:12:54.944Z,2136
2018-01-14T09:13:35.557Z,2148
2018-01-14T09:14:16.150Z,2180
2018-01-14T09:14:57.561Z,2228
2018-01-14T09:15:37.981Z,2288
2018-01-14T09:16:18.990Z,2340
2018-01-14T09:17:02.494Z,2376
2018-01-14T09:17:43.151Z,2404
2018-01-14T09:28:06.356Z,2156
2018-01-14T09:28:46.785Z,2100
2018-01-14T09:29:27.374Z,2048
2018-01-14T09:30:07.895Z,1992
2018-01-14T09:30:48.465Z,1948
2018-01-14T09:31:29.027Z,1932
2018-01-14T09:32:09.577Z,1948
2018-01-14T09:32:50.084Z,1932
2018-01-14T09:33:30.649Z,1904
2018-01-14T09:34:11.149Z,1900
2018-01-14T09:34:51.661Z,1900
2018-01-14T09:35:32.332Z,1904
2018-01-14T09:36:12.850Z,1924
2018-01-14T09:36:53.382Z,1924
2018-01-14T09:37:33.949Z,1960
2018-01-14T09:38:14.485Z,1980
2018-01-14T09:38:54.990Z,2004
2018-01-14T09:39:35.566Z,2040
2018-01-14T09:40:16.102Z,2088
2018-01-14T09:40:56.963Z,2148
2018-01-14T09:41:37.553Z,2188
2018-01-14T09:42:18.326Z,2220
2018-01-14T09:42:58.690Z,2232
2018-01-14T09:43:39.203Z,2244
2018-01-14T09:44:19.721Z,2240
2018-01-14T09:45:00.270Z,2244
2018-01-14T09:45:40.881Z,2252
2018-01-14T09:46:21.552Z,2276
2018-01-14T09:47:02.121Z,2324
2018-01-14T09:47:42.604Z,2376
2018-01-14T09:48:25.754Z,2440
2018-01-14T09:49:06.600Z,2508
2018-01-14T09:49:47.166Z,2580
2018-01-14T09:50:27.660Z,2652
2018-01-14T09:51:08.215Z,2664
2018-01-14T09:51:48.742Z,2636
2018-01-14T09:52:29.353Z,2564
2018-01-14T09:53:09.884Z,2484
2018-01-14T09:53:50.378Z,2432
2018-01-14T09:54:30.915Z,2384
2018-01-14T09:55:11.541Z,2344
2018-01-14T09:55:52.093Z,2328
2018-01-14T09:56:32.673Z,2364
2018-01-14T09:57:13.167Z,2432
2018-01-14T09:57:53.786Z,2540
2018-01-14T09:58:34.373Z,2660
2018-01-14T09:59:14.994Z,2772
2018-01-14T09:59:55.417Z,2844
2018-01-14T10:00:35.939Z,2872
2018-01-14T10:01:17.501Z,2856
2018-01-14T10:01:59.938Z,2812
2018-01-14T10:02:40.479Z,2752
2018-01-14T10:03:21.012Z,2692
2018-01-14T10:04:01.550Z,2628
2018-01-14T10:04:42.067Z,2584
2018-01-14T10:05:22.636Z,2544
2018-01-14T10:06:03.137Z,2528
2018-01-14T10:06:43.659Z,2520
2018-01-14T10:07:24.376Z,2532
2018-01-14T10:08:04.881Z,2532
2018-01-14T10:08:45.448Z,2516
2018-01-14T10:09:25.985Z,2488
2018-01-14T10:10:06.556Z,2456
2018-01-14T10:10:47.055Z,2416
2018-01-14T10:11:27.672Z,2388
2018-01-14T10:12:08.204Z,2392
2018-01-14T10:12:48.794Z,2428
2018-01-14T10:13:29.368Z,2472
2018-01-14T10:14:09.966Z,2532
2018-01-14T10:14:50.471Z,2608
2018-01-14T10:15:31.061Z,2700
2018-01-14T10:16:11.595Z,2772
2018-01-14T10:16:52.170Z,2816
2018-01-14T10:17:33.060Z,2868
2018-01-14T10:18:13.489Z,2860
2018-01-14T10:18:54.041Z,2840
2018-01-14T10:19:34.561Z,2812
2018-01-14T10:20:15.116Z,2768
2018-01-14T10:20:55.654Z,2736
2018-01-14T10:21:36.205Z,2684
2018-01-14T10:22:16.809Z,2632
2018-01-14T10:22:57.317Z,2616
2018-01-14T10:23:37.838Z,2620
2018-01-14T10:24:18.377Z,2656
2018-01-14T10:24:59.173Z,2720
2018-01-14T10:25:39.773Z,2780
2018-01-14T10:26:20.375Z,2824
2018-01-14T10:27:00.894Z,2848
2018-01-14T10:27:41.480Z,2864
2018-01-14T10:28:22.015Z,2884
2018-01-14T10:29:02.587Z,2848
2018-01-14T10:29:43.115Z,2804
2018-01-14T10:30:23.823Z,2772
2018-01-14T10:31:05.157Z,2740
2018-01-14T10:31:45.739Z,2768
2018-01-14T10:32:26.277Z,2832
2018-01-14T10:33:06.786Z,2844
2018-01-14T10:33:47.300Z,2872
2018-01-14T10:34:27.890Z,2908
2018-01-14T10:35:08.437Z,2928
2018-01-14T10:35:49.071Z,2940
2018-01-14T10:36:29.732Z,2908
2018-01-14T10:37:10.334Z,2888
2018-01-14T10:37:50.868Z,2868
2018-01-14T10:38:31.519Z,2860
2018-01-14T10:39:12.053Z,2844
2018-01-14T10:39:52.582Z,2832
2018-01-14T10:40:33.310Z,2816
2018-01-14T10:41:14.233Z,2788
2018-01-14T10:41:54.942Z,2764
2018-01-14T10:42:35.498Z,2764
2018-01-14T10:43:16.004Z,2784
2018-01-14T10:43:56.570Z,2800
2018-01-14T10:44:38.534Z,2796
2018-01-14T10:45:19.171Z,2816
2018-01-14T10:45:59.949Z,2852
2018-01-14T10:46:40.523Z,2872
2018-01-14T10:47:21.173Z,2888
2018-01-14T10:48:02.412Z,2872
2018-01-14T10:48:42.961Z,2840
2018-01-14T10:49:23.451Z,2796
2018-01-14T10:50:04.023Z,2740
2018-01-14T10:50:44.534Z,2676
2018-01-14T10:51:25.095Z,2656
2018-01-14T10:52:05.681Z,2676
2018-01-14T10:52:46.233Z,2692
2018-01-14T10:53:27.066Z,2680
2018-01-14T10:54:07.613Z,2648
2018-01-14T10:54:52.355Z,2600
2018-01-14T10:55:55.483Z,2536
2018-01-14T10:57:49.402Z,2480
2018-01-14T11:00:08.101Z,2456
2018-01-14T11:00:48.677Z,2468
2018-01-14T11:01:29.211Z,2540
2018-01-14T11:02:09.699Z,2568
2018-01-14T11:02:50.278Z,2588
2018-01-14T11:03:31.280Z,2612
2018-01-14T11:04:11.984Z,2608
2018-01-14T11:04:52.514Z,2676
2018-01-14T11:05:33.145Z,2732
2018-01-14T11:06:13.714Z,2744
2018-01-14T11:06:54.262Z,2732
2018-01-14T11:07:38.874Z,2748
2018-01-14T11:13:24.023Z,3120
2018-01-14T11:14:04.770Z,3084
2018-01-14T11:14:45.407Z,3072
2018-01-14T11:15:26.684Z,3040
2018-01-14T11:16:09.156Z,2972
2018-01-14T11:16:49.951Z,2880
2018-01-14T11:17:30.913Z,2824
2018-01-14T11:18:11.664Z,2788
2018-01-14T11:18:52.864Z,2740
2018-01-14T11:19:35.202Z,2716
2018-01-14T11:20:18.826Z,2720
2018-01-14T11:22:57.882Z,2700
2018-01-14T11:25:01.480Z,2680
2018-01-14T11:25:41.986Z,2716
2018-01-14T11:26:22.511Z,2672
2018-01-14T11:27:03.056Z,2656
2018-01-14T11:27:43.640Z,2660
2018-01-14T11:28:24.169Z,2684
2018-01-14T11:29:04.821Z,2740
2018-01-14T11:29:45.431Z,2796
2018-01-14T11:30:25.995Z,2888
2018-01-14T11:31:06.701Z,2872
2018-01-14T11:31:47.287Z,2876
2018-01-14T11:32:27.950Z,2828
2018-01-14T11:33:08.588Z,2752
2018-01-14T11:33:49.217Z,2656
2018-01-14T11:34:29.949Z,2572
2018-01-14T11:35:10.339Z,2512
2018-01-14T11:35:50.904Z,2496
2018-01-14T11:36:31.462Z,2488
2018-01-14T11:37:12.061Z,2508
2018-01-14T11:37:52.678Z,2480
2018-01-14T11:38:33.185Z,2480
2018-01-14T11:39:13.785Z,2516
2018-01-14T11:39:54.331Z,2612
2018-01-14T11:40:34.896Z,2612
2018-01-14T11:41:15.403Z,2640
2018-01-14T11:41:55.933Z,2576
2018-01-14T11:42:36.544Z,2480
2018-01-14T11:43:17.068Z,2408
2018-01-14T11:43:57.607Z,2376
2018-01-14T11:44:38.150Z,2376
2018-01-14T11:45:18.768Z,2384
2018-01-14T11:45:59.259Z,2408
2018-01-14T11:46:39.831Z,2480
2018-01-14T11:47:20.339Z,2568
2018-01-14T11:48:01.018Z,2584
2018-01-14T11:48:41.717Z,2504
2018-01-14T11:49:22.284Z,2428
2018-01-14T11:50:02.868Z,2388
2018-01-14T11:50:43.623Z,2380
2018-01-14T11:51:24.237Z,2432
2018-01-14T11:52:04.842Z,2428
2018-01-14T11:52:45.382Z,2488
2018-01-14T11:53:25.947Z,2536
2018-01-14T11:54:06.512Z,2612
2018-01-14T11:54:47.056Z,2644
2018-01-14T11:55:27.623Z,2640
2018-01-14T11:56:08.243Z,2656
2018-01-14T11:56:48.926Z,2692
2018-01-14T11:57:29.480Z,2656
2018-01-14T11:58:10.010Z,2620
2018-01-14T11:58:50.604Z,2600
2018-01-14T11:59:31.164Z,2636
2018-01-14T12:00:11.685Z,2656
2018-01-14T12:00:52.264Z,2624
2018-01-14T12:01:32.902Z,2620
2018-01-14T12:02:13.534Z,2584
2018-01-14T12:02:54.131Z,2600
2018-01-14T12:03:34.768Z,2576
2018-01-14T12:04:15.371Z,2608
2018-01-14T12:04:56.031Z,2632
2018-01-14T12:05:36.637Z,2696
2018-01-14T12:06:17.124Z,2716
2018-01-14T12:06:57.696Z,2748
2018-01-14T12:07:38.235Z,2872
2018-01-14T12:08:18.762Z,2980
2018-01-14T12:08:59.377Z,3012
2018-01-14T12:09:40.021Z,3040
2018-01-14T12:10:20.616Z,2988
2018-01-14T12:11:01.168Z,2932
2018-01-14T12:11:41.807Z,2960
2018-01-14T12:12:22.373Z,2976
2018-01-14T12:13:03.078Z,3004
2018-01-14T12:13:43.634Z,3028
2018-01-14T12:14:24.238Z,3032
2018-01-14T12:15:04.964Z,3036
2018-01-14T12:15:45.458Z,3020
2018-01-14T12:16:26.038Z,2992
2018-01-14T12:17:07.025Z,2992
2018-01-14T12:17:47.706Z,2988
2018-01-14T12:18:28.301Z,2984
2018-01-14T12:19:09.010Z,2996
2018-01-14T12:19:49.753Z,3016
2018-01-14T12:20:30.416Z,3044
2018-01-14T12:21:10.931Z,3048
2018-01-14T12:21:53.399Z,3040
2018-01-14T12:22:33.974Z,3016
2018-01-14T12:23:14.854Z,3032
2018-01-14T12:23:55.468Z,3036
2018-01-14T12:24:36.066Z,3008
2018-01-14T12:25:17.100Z,2952
2018-01-14T12:25:57.635Z,2888
2018-01-14T12:26:41.617Z,2796
2018-01-14T12:27:22.231Z,2740
2018-01-14T12:28:03.039Z,2724
2018-01-14T12:28:45.419Z,2744
2018-01-14T12:29:26.038Z,2788
2018-01-14T12:30:07.627Z,2812
2018-01-14T12:30:48.348Z,2880
2018-01-14T12:31:28.959Z,2912
2018-01-14T12:32:11.022Z,2892
2018-01-14T12:34:43.441Z,2848
2018-01-14T12:35:24.018Z,2840
2018-01-14T12:36:04.090Z,2796
2018-01-14T12:36:44.600Z,2712
2018-01-14T12:37:25.270Z,2624
2018-01-14T12:38:05.901Z,2580
2018-01-14T12:38:46.500Z,2568
2018-01-14T12:39:27.065Z,2588
2018-01-14T12:40:07.676Z,2612
2018-01-14T12:40:48.313Z,2640
2018-01-14T12:41:29.411Z,2692
2018-01-14T12:42:09.960Z,2720
2018-01-14T12:42:50.524Z,2712
2018-01-14T12:43:31.512Z,2664
2018-01-14T12:44:11.688Z,2580
2018-01-14T12:44:52.293Z,2496
2018-01-14T12:45:32.817Z,2436
2018-01-14T12:46:13.377Z,2408
2018-01-14T12:46:53.904Z,2420
2018-01-14T12:47:34.415Z,2456
2018-01-14T12:48:15.006Z,2472
2018-01-14T12:48:55.531Z,2476
2018-01-14T12:49:36.048Z,2460
2018-01-14T12:50:16.596Z,2460
2018-01-14T12:50:57.115Z,2452
2018-01-14T12:51:37.657Z,2432
2018-01-14T12:52:18.209Z,2416
2018-01-14T12:52:58.750Z,2396
2018-01-14T12:53:39.351Z,2384
2018-01-14T12:54:20.248Z,2376
2018-01-14T12:55:01.311Z,2340
2018-01-14T12:55:42.432Z,2292
2018-01-14T12:56:23.014Z,2264
2018-01-14T12:57:03.537Z,2276
2018-01-14T12:57:44.079Z,2304
2018-01-14T12:58:24.623Z,2348
2018-01-14T12:59:05.232Z,2416
2018-01-14T12:59:45.787Z,2500
2018-01-14T13:00:26.276Z,2584
2018-01-14T13:01:06.902Z,2652
2018-01-14T13:01:47.537Z,2680
2018-01-14T13:02:28.038Z,2672
2018-01-14T13:03:08.566Z,2636
2018-01-14T13:03:49.159Z,2620
2018-01-14T13:04:29.663Z,2612
2018-01-14T13:05:10.182Z,2612
2018-01-14T13:05:50.716Z,2620
2018-01-14T13:06:31.229Z,2604
2018-01-14T13:07:11.716Z,2556
2018-01-14T13:07:52.281Z,2464
2018-01-14T13:08:32.847Z,2352
2018-01-14T13:09:13.375Z,2280
2018-01-14T13:09:53.916Z,2240
2018-01-14T13:10:34.471Z,2220
2018-01-14T13:11:14.993Z,2192
2018-01-14T13:11:55.508Z,2164
2018-01-14T13:12:36.009Z,2152
2018-01-14T13:13:16.527Z,2124
2018-01-14T13:13:57.123Z,2092
2018-01-14T13:14:37.643Z,2072
2018-01-14T13:15:18.189Z,2052
2018-01-14T13:15:58.810Z,2036
2018-01-14T13:16:39.347Z,2024
2018-01-14T13:17:19.832Z,2020
2018-01-14T13:18:00.365Z,2020
2018-01-14T13:18:41.074Z,2016
2018-01-14T13:19:21.648Z,2016
2018-01-14T13:20:02.129Z,2016
2018-01-14T13:20:42.697Z,2016
2018-01-14T13:21:23.176Z,2008
2018-01-14T13:22:03.718Z,2004
2018-01-14T13:22:44.222Z,2000
2018-01-14T13:23:24.844Z,1984
2018-01-14T13:24:05.340Z,1972
2018-01-14T13:24:45.874Z,1956
2018-01-14T13:25:26.533Z,1952
2018-01-14T13:26:07.001Z,1944
2018-01-14T13:26:47.611Z,1944
2018-01-14T13:27:28.320Z,1940
2018-01-14T13:28:08.802Z,1940
2018-01-14T13:28:49.343Z,1936
2018-01-14T13:29:29.879Z,1932
2018-01-14T13:30:10.470Z,1928
2018-01-14T13:30:51.044Z,1912
2018-01-14T13:31:31.637Z,1904
2018-01-14T13:32:12.134Z,1892
2018-01-14T13:32:52.691Z,1884
2018-01-14T13:33:33.282Z,1880